Dades meteomassalio
Diari Summary for Febrer 9, 2018 Units:  English    Metric   Both
« Previous Day
Next Day »
Diari Semanal Mensual Anual Personalitzat
  Maxima: Minima: Mijana:
Temperatura: TemperatureC °F -5.6 °F 2.3 °F
Rosada: DewpointC °F -6.8 °F -1.8 °F
Humitat: Humidity % 47 % 76 %
Velocitat del vent: WindSpeedKMH mph 0.0 mph 14.4 mph
Racha vent: WindSpeedGustKMH mph - -
Vent:- - WNW
Pressio: PressurehPa in 1020.2 in -
Pluja: 0.5 in    
Historical Graphs
 
 
Tabular Data for Febrer 9, 2018
Time Temperature Dew Point Pressure Wind Wind Speed Wind Gust Humidity Rainfall Rate (Hourly) solar Conditions
TemperatureC °F DewpointC °F PressurehPa in Calm     Humidity % HourlyPrecipMM in SolarRadiationWatts/m^2 W/m2 Conditions
00:00 -2.2 °F -3.7 °F 1023.2 in West 8.0 mph 8.0 mph 90 % 0.0 in 0.0 W/m2 CLR
00:05 -2.2 °F -3.7 °F 1023.2 in West 6.4 mph 6.4 mph 90 % 0.0 in 0.0 W/m2 RA
00:10 -2.2 °F -3.7 °F 1023.2 in West 7.4 mph 7.4 mph 90 % 0.0 in 0.0 W/m2 CLR
00:15 -2.8 °F -4.2 °F 1023.2 in WNW 9.3 mph 9.3 mph 90 % 0.0 in 0.0 W/m2 CLR
00:20 -2.8 °F -4.2 °F 1023.2 in WNW 11.1 mph 11.1 mph 90 % 0.0 in 0.0 W/m2 CLR
00:25 -2.8 °F -4.3 °F 1023.2 in WNW 11.3 mph 11.3 mph 89 % 0.0 in 0.0 W/m2 CLR
00:30 -2.8 °F -4.3 °F 1023.2 in WNW 13.0 mph 13.0 mph 89 % 0.0 in 0.0 W/m2 CLR
00:35 -2.8 °F -4.3 °F 1022.9 in WNW 13.0 mph 13.0 mph 89 % 0.0 in 0.0 W/m2 CLR
00:40 -2.8 °F -4.3 °F 1022.9 in West 9.3 mph 9.3 mph 89 % 0.0 in 0.0 W/m2 CLR
00:45 -2.8 °F -4.3 °F 1022.9 in West 13.0 mph 13.0 mph 89 % 0.0 in 0.0 W/m2 CLR
00:50 -2.8 °F -4.3 °F 1022.9 in West 9.7 mph 9.7 mph 89 % 0.0 in 0.0 W/m2 CLR
00:55 -2.8 °F -4.3 °F 1022.9 in West 9.3 mph 9.3 mph 89 % 0.0 in 0.0 W/m2 CLR
01:00 -2.8 °F -4.3 °F 1022.9 in West 9.3 mph 9.3 mph 89 % 0.0 in 0.0 W/m2 CLR
01:05 -2.8 °F -4.3 °F 1022.9 in West 11.1 mph 11.1 mph 89 % 0.0 in 0.0 W/m2 CLR
01:10 -2.8 °F -4.3 °F 1022.9 in West 14.8 mph 14.8 mph 89 % 0.0 in 0.0 W/m2 CLR
01:15 -2.8 °F -4.3 °F 1022.9 in West 14.8 mph 14.8 mph 89 % 0.0 in 0.0 W/m2 CLR
01:20 -2.8 °F -4.3 °F 1022.9 in West 14.5 mph 14.5 mph 89 % 0.0 in 0.0 W/m2 CLR
01:25 -2.8 °F -4.3 °F 1022.9 in West 14.8 mph 14.8 mph 89 % 0.0 in 0.0 W/m2 CLR
01:30 -2.8 °F -4.3 °F 1022.9 in West 11.1 mph 11.1 mph 89 % 0.0 in 0.0 W/m2 CLR
01:35 -2.8 °F -4.5 °F 1023.2 in West 11.1 mph 11.1 mph 88 % 0.0 in 0.0 W/m2 CLR
01:40 -2.8 °F -4.5 °F 1023.2 in West 13.0 mph 13.0 mph 88 % 0.0 in 0.0 W/m2 CLR
01:45 -2.8 °F -4.5 °F 1023.2 in West 13.0 mph 13.0 mph 88 % 0.0 in 0.0 W/m2 CLR
01:50 -2.8 °F -4.5 °F 1022.9 in West 13.0 mph 13.0 mph 88 % 0.0 in 0.0 W/m2 CLR
01:55 -3.3 °F -5.1 °F 1022.9 in West 11.1 mph 11.1 mph 88 % 0.0 in 0.0 W/m2 CLR
02:00 -3.3 °F -5.1 °F 1022.9 in West 13.0 mph 13.0 mph 88 % 0.0 in 0.0 W/m2 CLR
02:05 -3.3 °F -5.1 °F 1022.9 in WSW 12.9 mph 12.9 mph 88 % 0.0 in 0.0 W/m2 CLR
02:10 -3.3 °F -5.1 °F 1022.9 in West 11.3 mph 11.3 mph 88 % 0.0 in 0.0 W/m2 CLR
02:15 -2.8 °F -4.5 °F 1022.9 in West 18.5 mph 18.5 mph 88 % 0.0 in 0.0 W/m2 CLR
02:20 -3.3 °F -5.1 °F 1022.9 in West 14.8 mph 14.8 mph 88 % 0.0 in 0.0 W/m2 CLR
02:25 -2.8 °F -4.5 °F 1022.9 in West 13.0 mph 13.0 mph 88 % 0.0 in 0.0 W/m2 CLR
02:30 -2.8 °F -4.5 °F 1023.2 in West 11.1 mph 11.1 mph 88 % 0.0 in 0.0 W/m2 CLR
02:35 -2.8 °F -4.5 °F 1023.2 in West 9.7 mph 9.7 mph 88 % 0.0 in 0.0 W/m2 CLR
02:40 -2.8 °F -4.5 °F 1023.2 in West 9.3 mph 9.3 mph 88 % 0.0 in 0.0 W/m2 CLR
02:45 -2.8 °F -4.5 °F 1023.2 in WSW 6.4 mph 6.4 mph 88 % 0.0 in 0.0 W/m2 CLR
02:50 -3.3 °F -5.1 °F 1023.2 in WSW 9.3 mph 9.3 mph 88 % 0.0 in 0.0 W/m2 CLR
02:55 -3.3 °F -5.1 °F 1023.2 in West 11.3 mph 11.3 mph 88 % 0.0 in 0.0 W/m2 CLR
03:00 -3.3 °F -5.1 °F 1023.2 in WSW 7.4 mph 7.4 mph 88 % 0.0 in 0.0 W/m2 CLR
03:05 -3.3 °F -5.1 °F 1023.2 in West 11.3 mph 11.3 mph 88 % 0.0 in 0.0 W/m2 CLR
03:10 -3.3 °F -5.1 °F 1022.9 in West 8.0 mph 8.0 mph 88 % 0.0 in 0.0 W/m2 CLR
03:15 -3.3 °F -5.1 °F 1022.9 in Calm     88 % 0.0 in 0.0 W/m2 CLR
03:20 -3.3 °F -5.1 °F 1022.9 in Calm     88 % 0.0 in 0.0 W/m2 CLR
03:25 -3.9 °F -5.6 °F 1022.9 in Calm     88 % 0.0 in 0.0 W/m2 CLR
03:30 -3.9 °F -5.6 °F 1022.9 in West 7.4 mph 7.4 mph 88 % 0.0 in 0.0 W/m2 CLR
03:35 -3.9 °F -5.4 °F 1022.9 in West 9.3 mph 9.3 mph 89 % 0.0 in 0.0 W/m2 CLR
03:40 -3.9 °F -5.4 °F 1022.9 in WNW 13.0 mph 13.0 mph 89 % 0.0 in 0.0 W/m2 CLR
03:45 -4.4 °F -6.1 °F 1022.9 in West 9.3 mph 9.3 mph 88 % 0.0 in 0.0 W/m2 CLR
03:50 -4.4 °F -6.1 °F 1022.9 in West 9.3 mph 9.3 mph 88 % 0.0 in 0.0 W/m2 CLR
03:55 -4.4 °F -6.3 °F 1022.6 in WSW 5.6 mph 5.6 mph 87 % 0.0 in 0.0 W/m2 CLR
04:00 -4.4 °F -6.1 °F 1022.6 in WSW 8.0 mph 8.0 mph 88 % 0.0 in 0.0 W/m2 CLR
04:05 -4.4 °F -6.1 °F 1022.6 in WSW 5.6 mph 5.6 mph 88 % 0.0 in 0.0 W/m2 CLR
04:10 -4.4 °F -6.1 °F 1022.6 in West 7.4 mph 7.4 mph 88 % 0.0 in 0.0 W/m2 CLR
04:15 -4.4 °F -6.1 °F 1022.6 in WNW 7.4 mph 7.4 mph 88 % 0.0 in 0.0 W/m2 CLR
04:20 -4.4 °F -6.0 °F 1022.6 in WNW 11.3 mph 11.3 mph 89 % 0.0 in 0.0 W/m2 CLR
04:25 -4.4 °F -6.1 °F 1022.6 in West 5.6 mph 5.6 mph 88 % 0.0 in 0.0 W/m2 CLR
04:30 -4.4 °F -6.3 °F 1022.6 in Calm     87 % 0.0 in 0.0 W/m2 CLR
04:35 -4.4 °F -6.3 °F 1022.6 in Calm     87 % 0.0 in 0.0 W/m2 CLR
04:40 -4.4 °F -6.1 °F 1022.6 in Calm     88 % 0.0 in 0.0 W/m2 CLR
04:45 -4.4 °F -6.1 °F 1022.6 in Calm     88 % 0.0 in 0.0 W/m2 CLR
04:50 -4.4 °F -6.0 °F 1022.6 in Calm     89 % 0.0 in 0.0 W/m2 CLR
04:55 -4.4 °F -6.0 °F 1022.6 in Calm     89 % 0.0 in 0.0 W/m2 CLR
05:00 -4.4 °F -6.0 °F 1022.6 in Calm     89 % 0.0 in 0.0 W/m2 CLR
05:05 -4.4 °F -6.0 °F 1022.6 in Calm     89 % 0.0 in 0.0 W/m2 CLR
05:10 -5.0 °F -6.6 °F 1022.6 in Calm     89 % 0.0 in 0.0 W/m2 CLR
05:15 -5.0 °F -6.4 °F 1022.6 in Calm     90 % 0.0 in 0.0 W/m2 CLR
05:20 -5.0 °F -6.4 °F 1022.6 in Calm     90 % 0.0 in 0.0 W/m2 CLR
05:25 -5.0 °F -6.4 °F 1022.6 in Calm     90 % 0.0 in 0.0 W/m2 CLR
05:30 -5.0 °F -6.4 °F 1022.6 in Calm     90 % 0.0 in 0.0 W/m2 CLR
05:35 -5.0 °F -6.4 °F 1022.6 in Calm     90 % 0.0 in 0.0 W/m2 CLR
05:40 -5.0 °F -6.4 °F 1022.6 in Calm     90 % 0.0 in 0.0 W/m2 CLR
05:45 -5.0 °F -6.4 °F 1022.9 in Calm     90 % 0.0 in 0.0 W/m2 CLR
05:50 -5.0 °F -6.4 °F 1022.9 in Calm     90 % 0.0 in 0.0 W/m2 CLR
05:55 -5.0 °F -6.4 °F 1022.6 in Calm     90 % 0.0 in 0.0 W/m2 CLR
06:00 -5.0 °F -6.4 °F 1022.9 in Calm     90 % 0.0 in 0.0 W/m2 CLR
06:05 -5.0 °F -6.4 °F 1022.9 in Calm     90 % 0.0 in 0.0 W/m2 CLR
06:10 -5.0 °F -6.4 °F 1022.9 in Calm     90 % 0.0 in 0.0 W/m2 CLR
06:15 -5.0 °F -6.4 °F 1022.9 in Calm     90 % 0.0 in 0.0 W/m2 CLR
06:20 -5.0 °F -6.4 °F 1022.9 in Calm     90 % 0.0 in 0.0 W/m2 CLR
06:26 -5.0 °F -6.4 °F 1022.9 in Calm     90 % 0.0 in 0.0 W/m2 CLR
06:31 -5.0 °F -6.4 °F 1022.9 in Calm     90 % 0.0 in 0.0 W/m2 CLR
06:36 -5.0 °F -6.4 °F 1022.9 in Calm     90 % 0.0 in 0.0 W/m2 CLR
06:41 -5.0 °F -6.2 °F 1022.6 in Calm     91 % 0.0 in 0.0 W/m2 CLR
06:46 -5.0 °F -6.2 °F 1022.9 in Calm     91 % 0.0 in 0.0 W/m2 CLR
06:51 -5.0 °F -6.2 °F 1022.9 in Calm     91 % 0.0 in 0.0 W/m2 CLR
06:56 -5.0 °F -6.2 °F 1022.9 in Calm     91 % 0.0 in 0.0 W/m2 CLR
07:01 -5.0 °F -6.2 °F 1022.9 in Calm     91 % 0.0 in 0.0 W/m2 CLR
07:06 -5.0 °F -6.2 °F 1022.9 in Calm     91 % 0.0 in 0.0 W/m2 CLR
07:11 -5.6 °F -6.8 °F 1022.9 in Calm     91 % 0.0 in 0.0 W/m2 CLR
07:16 -5.0 °F -6.2 °F 1022.9 in Calm     91 % 0.0 in 0.0 W/m2 CLR
07:21 -5.0 °F -6.2 °F 1022.9 in Calm     91 % 0.0 in 0.0 W/m2 CLR
07:26 -5.0 °F -6.2 °F 1022.9 in Calm     91 % 0.0 in 0.0 W/m2 CLR
07:31 -5.6 °F -6.8 °F 1022.9 in Calm     91 % 0.0 in 0.0 W/m2 CLR
07:36 -5.6 °F -6.8 °F 1022.9 in Calm     91 % 0.0 in 0.0 W/m2 CLR
07:41 -5.0 °F -6.2 °F 1022.6 in Calm     91 % 0.0 in 0.0 W/m2 CLR
07:46 -5.0 °F -6.2 °F 1022.9 in Calm     91 % 0.0 in 0.0 W/m2 CLR
07:51 -5.0 °F -6.2 °F 1022.9 in Calm     91 % 0.0 in 0.0 W/m2 CLR
07:56 -5.0 °F -6.2 °F 1022.9 in Calm     91 % 0.0 in 0.0 W/m2 CLR
08:01 -5.0 °F -6.2 °F 1022.9 in Calm     91 % 0.0 in 0.0 W/m2 OVC
08:06 -5.0 °F -6.2 °F 1022.9 in Calm     91 % 0.0 in 7.0 W/m2 BKN
08:11 -5.0 °F -6.2 °F 1022.9 in Calm     91 % 0.0 in 9.0 W/m2 BKN
08:16 -5.0 °F -6.1 °F 1022.9 in Calm     92 % 0.0 in 11.0 W/m2 BKN
08:21 -5.0 °F -6.1 °F 1022.9 in Calm     92 % 0.0 in 14.0 W/m2 BKN
08:26 -5.0 °F -6.1 °F 1022.9 in Calm     92 % 0.0 in 18.0 W/m2 BKN
08:31 -5.0 °F -6.1 °F 1022.9 in Calm     92 % 0.0 in 19.0 W/m2 BKN
08:36 -5.0 °F -6.1 °F 1022.9 in Calm     92 % 0.0 in 25.0 W/m2 BKN
08:41 -5.0 °F -6.1 °F 1022.9 in Calm     92 % 0.0 in 37.0 W/m2 BKN
08:46 -5.0 °F -6.1 °F 1022.9 in Calm     92 % 0.0 in 69.0 W/m2 FEW
08:51 -4.4 °F -5.7 °F 1022.9 in Calm     91 % 0.0 in 86.0 W/m2 CLR
08:56 -4.4 °F -5.6 °F 1022.9 in Calm     92 % 0.0 in 107.0 W/m2 CLR
09:01 -3.9 °F -5.2 °F 1022.9 in Calm     91 % 0.0 in 127.0 W/m2 CLR
09:06 -3.9 °F -5.2 °F 1022.9 in Calm     91 % 0.0 in 141.0 W/m2 CLR
09:11 -3.9 °F -5.2 °F 1022.9 in Calm     91 % 0.0 in 144.0 W/m2 CLR
09:16 -3.3 °F -4.7 °F 1022.9 in Calm     90 % 0.0 in 127.0 W/m2 CLR
09:21 -3.3 °F -4.7 °F 1022.9 in Calm     90 % 0.0 in 179.0 W/m2 CLR
09:26 -3.3 °F -4.7 °F 1022.9 in Calm     90 % 0.0 in 195.0 W/m2 CLR
09:31 -2.8 °F -4.2 °F 1022.9 in Calm     90 % 0.0 in 95.0 W/m2 CLR
09:36 -2.8 °F -4.3 °F 1022.9 in Calm     89 % 0.3 in 227.0 W/m2 RA
09:41 -2.2 °F -3.8 °F 1022.9 in Calm     89 % 0.3 in 244.0 W/m2 CLR
09:46 -2.2 °F -3.9 °F 1022.9 in Calm     88 % 0.3 in 230.0 W/m2 CLR
09:51 -1.7 °F -3.4 °F 1022.9 in Calm     88 % 0.3 in 279.0 W/m2 CLR
09:56 -1.7 °F -3.4 °F 1022.9 in Calm     88 % 0.3 in 292.0 W/m2 CLR
10:01 -1.1 °F -2.8 °F 1022.9 in Calm     88 % 0.3 in 304.0 W/m2 CLR
10:06 -0.6 °F -2.3 °F 1022.9 in Calm     88 % 0.3 in 322.0 W/m2 CLR
10:11 0.0 °F -1.9 °F 1022.9 in Calm     87 % 0.3 in 334.0 W/m2 CLR
10:16 0.0 °F -2.1 °F 1022.9 in Calm     86 % 0.3 in 341.0 W/m2 CLR
10:21 0.6 °F -1.8 °F 1022.9 in Calm     84 % 0.5 in 360.0 W/m2 RA
10:26 1.7 °F -0.7 °F 1023.2 in Calm     84 % 0.5 in 367.0 W/m2 CLR
10:31 2.2 °F -0.4 °F 1023.2 in Calm     83 % 0.5 in 243.0 W/m2 CLR
10:36 2.2 °F -1.4 °F 1023.2 in NW 20.4 mph 20.4 mph 77 % 0.3 in 216.0 W/m2 CLR
10:41 2.8 °F -2.2 °F 1023.2 in WNW 13.0 mph 13.0 mph 70 % 0.3 in 281.0 W/m2 CLR
10:43 2.8 °F -2.2 °F 1023.2 in NW 5.6 mph 5.6 mph 70 % 0.3 in 406.0 W/m2 CLR
10:48 3.3 °F -2.0 °F 1023.2 in WNW 5.6 mph 5.6 mph 68 % 0.3 in 432.0 W/m2 CLR
10:54 3.9 °F -1.9 °F 1023.2 in NNW 20.4 mph 20.4 mph 66 % 0.3 in 343.0 W/m2 CLR
10:59 4.4 °F -1.2 °F 1023.2 in NNW 5.6 mph 5.6 mph 67 % 0.3 in 396.0 W/m2 CLR
11:04 4.4 °F -1.3 °F 1023.2 in NNW 20.9 mph 20.9 mph 66 % 0.3 in 415.0 W/m2 CLR
11:09 4.4 °F -1.2 °F 1023.2 in WNW 6.4 mph 6.4 mph 67 % 0.3 in 429.0 W/m2 CLR
11:14 5.0 °F -0.6 °F 1023.2 in NNW 4.8 mph 4.8 mph 67 % 0.3 in 399.0 W/m2 CLR
11:19 5.0 °F -1.3 °F 1023.2 in WNW 16.7 mph 16.7 mph 64 % 0.0 in 459.0 W/m2 CLR
11:24 5.0 °F -0.8 °F 1023.2 in NW 18.5 mph 18.5 mph 66 % 0.0 in 466.0 W/m2 CLR
11:29 5.0 °F -1.1 °F 1023.2 in West 3.7 mph 3.7 mph 65 % 0.0 in 506.0 W/m2 CLR
11:34 5.6 °F -0.9 °F 1023.2 in WNW 5.6 mph 5.6 mph 63 % 0.0 in 520.0 W/m2 CLR
11:39 5.6 °F -0.7 °F 1023.2 in West 5.6 mph 5.6 mph 64 % 0.0 in 520.0 W/m2 CLR
11:44 5.6 °F -0.5 °F 1023.2 in NW 11.1 mph 11.1 mph 65 % 0.0 in 526.0 W/m2 CLR
11:49 5.6 °F -1.2 °F 1023.6 in North 17.7 mph 17.7 mph 62 % 0.0 in 533.0 W/m2 CLR
11:54 6.1 °F -0.2 °F 1023.2 in WNW 18.5 mph 18.5 mph 64 % 0.0 in 513.0 W/m2 CLR
11:59 6.1 °F -0.2 °F 1023.2 in NNW 18.5 mph 18.5 mph 64 % 0.0 in 577.0 W/m2 CLR
12:04 6.7 °F 0.3 °F 1023.2 in WNW 20.4 mph 20.4 mph 64 % 0.0 in 541.0 W/m2 CLR
12:09 6.7 °F -0.3 °F 1023.2 in WNW 18.5 mph 18.5 mph 61 % 0.0 in 527.0 W/m2 CLR
12:14 6.7 °F -0.1 °F 1023.6 in WNW 5.6 mph 5.6 mph 62 % 0.0 in 599.0 W/m2 CLR
12:19 6.7 °F -0.6 °F 1023.2 in NW 14.8 mph 14.8 mph 60 % 0.0 in 617.0 W/m2 CLR
12:24 7.2 °F 0.4 °F 1023.2 in NNW 16.7 mph 16.7 mph 62 % 0.0 in 640.0 W/m2 CLR
12:29 7.2 °F -0.3 °F 1023.2 in WNW 22.2 mph 22.2 mph 59 % 0.0 in 541.0 W/m2 CLR
12:34 7.2 °F 0.2 °F 1023.2 in North 18.5 mph 18.5 mph 61 % 0.0 in 431.0 W/m2 CLR
12:39 7.2 °F 0.2 °F 1023.2 in North 18.5 mph 18.5 mph 61 % 0.0 in 387.0 W/m2 CLR
12:44 7.2 °F 0.2 °F 1023.2 in NW 20.4 mph 20.4 mph 61 % 0.0 in 573.0 W/m2 CLR
12:49 7.8 °F 0.5 °F 1022.9 in NNW 13.0 mph 13.0 mph 60 % 0.0 in 548.0 W/m2 CLR
12:54 7.8 °F 0.7 °F 1023.2 in NNW 22.2 mph 22.2 mph 61 % 0.0 in 554.0 W/m2 CLR
12:59 8.3 °F 1.2 °F 1023.2 in NNW 18.5 mph 18.5 mph 61 % 0.0 in 610.0 W/m2 CLR
13:04 8.3 °F 0.8 °F 1022.9 in North 13.0 mph 13.0 mph 59 % 0.0 in 515.0 W/m2 CLR
13:09 8.3 °F 0.8 °F 1022.9 in North 16.7 mph 16.7 mph 59 % 0.0 in 533.0 W/m2 CLR
13:14 8.3 °F 1.0 °F 1022.6 in WNW 13.0 mph 13.0 mph 60 % 0.0 in 512.0 W/m2 CLR
13:19 8.3 °F 0.1 °F 1022.6 in WNW 18.5 mph 18.5 mph 56 % 0.0 in 552.0 W/m2 CLR
13:25 8.3 °F 0.6 °F 1022.2 in NNW 14.8 mph 15.4 mph 58 % 0.0 in 548.0 W/m2 CLR
13:30 8.3 °F 0.1 °F 1022.2 in NNW 20.9 mph 20.9 mph 56 % 0.0 in 480.0 W/m2 CLR
13:35 8.3 °F 0.6 °F 1022.2 in WNW 18.5 mph 18.5 mph 58 % 0.0 in 501.0 W/m2 CLR
13:40 8.3 °F 0.6 °F 1021.9 in NW 14.5 mph 14.5 mph 58 % 0.0 in 490.0 W/m2 CLR
13:45 8.3 °F 0.3 °F 1021.9 in NW 18.5 mph 18.5 mph 57 % 0.0 in 566.0 W/m2 CLR
13:50 8.9 °F 0.6 °F 1021.9 in NW 13.0 mph 13.0 mph 56 % 0.0 in 571.0 W/m2 CLR
13:55 8.9 °F 0.1 °F 1021.9 in NNW 14.8 mph 14.8 mph 54 % 0.0 in 545.0 W/m2 CLR
14:00 8.9 °F -0.4 °F 1021.6 in NW 22.2 mph 22.2 mph 52 % 0.0 in 352.0 W/m2 CLR
14:05 8.3 °F 0.3 °F 1021.6 in NW 11.3 mph 12.1 mph 57 % 0.0 in 399.0 W/m2 CLR
14:10 8.3 °F -1.2 °F 1021.2 in WNW 13.0 mph 13.0 mph 51 % 0.0 in 316.0 W/m2 CLR
14:15 8.3 °F -0.9 °F 1021.2 in NW 14.8 mph 14.8 mph 52 % 0.0 in 345.0 W/m2 CLR
14:20 8.3 °F -0.4 °F 1021.2 in NNW 18.5 mph 18.5 mph 54 % 0.0 in 399.0 W/m2 CLR
14:26 8.3 °F -0.2 °F 1021.2 in NW 18.5 mph 18.5 mph 55 % 0.0 in 364.0 W/m2 CLR
14:31 8.9 °F -0.7 °F 1021.2 in NW 12.9 mph 12.9 mph 51 % 0.0 in 508.0 W/m2 CLR
14:36 9.4 °F 0.8 °F 1020.9 in West 1.9 mph 1.9 mph 55 % 0.0 in 559.0 W/m2 CLR
14:41 9.4 °F 0.8 °F 1020.9 in West 7.4 mph 7.4 mph 55 % 0.0 in 471.0 W/m2 CLR
14:46 9.4 °F 0.1 °F 1020.9 in NW 3.7 mph 3.7 mph 52 % 0.0 in 566.0 W/m2 CLR
14:51 9.4 °F -0.2 °F 1020.9 in NW 14.8 mph 14.8 mph 51 % 0.0 in 552.0 W/m2 CLR
14:56 10.0 °F 0.3 °F 1020.9 in NNW 25.9 mph 25.9 mph 51 % 0.0 in 531.0 W/m2 CLR
15:01 10.0 °F 0.6 °F 1020.9 in North 18.5 mph 18.5 mph 52 % 0.0 in 513.0 W/m2 CLR
15:06 10.0 °F 0.3 °F 1020.5 in North 18.5 mph 18.5 mph 51 % 0.0 in 496.0 W/m2 CLR
15:11 10.0 °F 0.3 °F 1020.5 in WNW 18.5 mph 18.5 mph 51 % 0.0 in 489.0 W/m2 CLR
15:16 10.0 °F 0.3 °F 1020.5 in NNW 16.7 mph 16.7 mph 51 % 0.0 in 478.0 W/m2 CLR
15:21 10.0 °F -0.8 °F 1020.5 in NW 20.4 mph 20.4 mph 47 % 0.0 in 471.0 W/m2 CLR
15:26 10.0 °F -0.2 °F 1020.5 in West 16.7 mph 16.7 mph 49 % 0.0 in 468.0 W/m2 CLR
15:33 9.4 °F -0.4 °F 1020.5 in NNW 20.4 mph 20.4 mph 50 % 0.0 in 411.0 W/m2 CLR
15:38 9.4 °F -0.4 °F 1020.5 in WNW 14.8 mph 14.8 mph 50 % 0.0 in 248.0 W/m2 CLR
15:43 9.4 °F 0.1 °F 1020.5 in NW 19.3 mph 19.3 mph 52 % 0.0 in 244.0 W/m2 CLR
15:48 9.4 °F -0.2 °F 1020.5 in NNW 19.3 mph 19.3 mph 51 % 0.0 in 403.0 W/m2 CLR
15:53 10.0 °F 0.3 °F 1020.5 in North 24.1 mph 24.1 mph 51 % 0.0 in 360.0 W/m2 CLR
15:58 9.4 °F -0.2 °F 1020.5 in NW 16.7 mph 16.7 mph 51 % 0.0 in 221.0 W/m2 CLR
16:03 9.4 °F -0.2 °F 1020.5 in NNW 25.9 mph 25.9 mph 51 % 0.0 in 237.0 W/m2 CLR
16:08 9.4 °F 0.1 °F 1020.5 in North 20.4 mph 20.4 mph 52 % 0.0 in 257.0 W/m2 CLR
16:13 9.4 °F 0.1 °F 1020.2 in NNW 22.5 mph 22.5 mph 52 % 0.0 in 202.0 W/m2 CLR
16:18 9.4 °F -0.2 °F 1020.2 in NNW 25.9 mph 25.9 mph 51 % 0.0 in 188.0 W/m2 CLR
16:23 9.4 °F 0.1 °F 1020.2 in NNW 24.1 mph 24.1 mph 52 % 0.0 in 174.0 W/m2 CLR
16:28 8.9 °F -0.2 °F 1020.2 in NNW 27.8 mph 27.8 mph 53 % 0.0 in 165.0 W/m2 CLR
16:33 8.9 °F -0.7 °F 1020.2 in NW 22.5 mph 22.5 mph 51 % 0.0 in 155.0 W/m2 CLR
16:38 8.9 °F -0.2 °F 1020.2 in North 22.5 mph 22.5 mph 53 % 0.0 in 148.0 W/m2 CLR
16:43 8.9 °F 0.1 °F 1020.2 in North 18.5 mph 18.5 mph 54 % 0.0 in 146.0 W/m2 CLR
16:48 8.9 °F -0.2 °F 1020.2 in NNW 24.1 mph 24.1 mph 53 % 0.0 in 135.0 W/m2 CLR
16:53 8.9 °F 0.1 °F 1020.2 in North 16.7 mph 16.7 mph 54 % 0.0 in 128.0 W/m2 CLR
16:58 8.9 °F 0.3 °F 1020.2 in North 18.5 mph 18.5 mph 55 % 0.0 in 123.0 W/m2 CLR
17:03 8.3 °F -0.4 °F 1020.2 in North 31.5 mph 31.5 mph 54 % 0.0 in 116.0 W/m2 CLR
17:08 8.3 °F -0.2 °F 1020.2 in NNW 20.4 mph 20.4 mph 55 % 0.0 in 104.0 W/m2 CLR
17:13 8.3 °F -0.2 °F 1020.5 in NNW 24.1 mph 24.1 mph 55 % 0.0 in 97.0 W/m2 CLR
17:18 8.3 °F -0.2 °F 1020.5 in NNW 16.7 mph 16.7 mph 55 % 0.0 in 91.0 W/m2 CLR
17:23 8.3 °F 0.1 °F 1020.5 in North 16.1 mph 16.1 mph 56 % 0.0 in 95.0 W/m2 CLR
17:28 8.3 °F 0.1 °F 1020.5 in NW 16.7 mph 16.7 mph 56 % 0.0 in 83.0 W/m2 FEW
17:33 8.3 °F 0.1 °F 1020.2 in North 24.1 mph 24.1 mph 56 % 0.0 in 70.0 W/m2 FEW
17:38 8.3 °F 0.1 °F 1020.5 in NW 20.4 mph 20.4 mph 56 % 0.0 in 58.0 W/m2 SCT
17:43 8.3 °F 0.3 °F 1020.5 in NNW 22.2 mph 22.2 mph 57 % 0.0 in 44.0 W/m2 BKN
17:48 8.3 °F 0.3 °F 1020.5 in North 18.5 mph 18.5 mph 57 % 0.0 in 30.0 W/m2 BKN
17:53 7.8 °F 0.3 °F 1020.9 in North 18.5 mph 18.5 mph 59 % 0.0 in 19.0 W/m2 BKN
17:58 7.8 °F 0.5 °F 1020.9 in NNW 20.4 mph 20.4 mph 60 % 0.0 in 14.0 W/m2 BKN
18:03 7.8 °F 1.2 °F 1020.9 in North 25.7 mph 25.7 mph 63 % 0.0 in 14.0 W/m2 BKN
18:08 7.8 °F 1.4 °F 1020.9 in NNW 31.5 mph 31.5 mph 64 % 0.0 in 11.0 W/m2 BKN
18:13 7.2 °F 1.3 °F 1020.9 in NW 24.1 mph 24.1 mph 66 % 0.0 in 9.0 W/m2 BKN
18:18 7.2 °F 1.7 °F 1020.9 in NW 18.5 mph 18.5 mph 68 % 0.0 in 5.0 W/m2 OVC
18:23 6.7 °F 1.6 °F 1020.9 in WNW 14.8 mph 14.8 mph 70 % 0.0 in 0.0 W/m2 OVC
18:28 6.7 °F 1.8 °F 1020.9 in WNW 18.5 mph 18.5 mph 71 % 0.0 in 0.0 W/m2 OVC
18:33 6.7 °F 2.2 °F 1020.9 in NW 18.5 mph 18.5 mph 73 % 0.0 in 0.0 W/m2 OVC
18:38 6.1 °F 2.0 °F 1020.9 in NW 14.8 mph 14.8 mph 75 % 0.0 in 0.0 W/m2 CLR
18:43 6.1 °F 2.2 °F 1020.9 in WNW 14.8 mph 14.8 mph 76 % 0.0 in 0.0 W/m2 CLR
18:48 6.1 °F 2.2 °F 1020.9 in WNW 14.8 mph 14.8 mph 76 % 0.0 in 0.0 W/m2 CLR
18:53 6.1 °F 2.4 °F 1021.2 in WNW 14.8 mph 14.8 mph 77 % 0.0 in 0.0 W/m2 CLR
18:58 6.1 °F 2.2 °F 1021.2 in WNW 11.1 mph 11.1 mph 76 % 0.0 in 0.0 W/m2 CLR
19:03 6.1 °F 2.2 °F 1021.2 in West 5.6 mph 5.6 mph 76 % 0.0 in 0.0 W/m2 CLR
19:08 6.1 °F 2.4 °F 1021.2 in West 7.4 mph 7.4 mph 77 % 0.0 in 0.0 W/m2 CLR
19:13 5.6 °F 1.8 °F 1021.2 in West 7.4 mph 7.4 mph 77 % 0.0 in 0.0 W/m2 CLR
19:18 5.6 °F 2.0 °F 1021.2 in Calm     78 % 0.0 in 0.0 W/m2 CLR
19:23 5.6 °F 2.0 °F 1021.2 in Calm     78 % 0.0 in 0.0 W/m2 CLR
19:28 5.6 °F 2.0 °F 1021.2 in Calm     78 % 0.0 in 0.0 W/m2 CLR
19:33 5.6 °F 1.8 °F 1021.2 in NW 1.6 mph 1.8 mph 77 % 0.0 in 0.0 W/m2 CLR
19:38 5.6 °F 1.8 °F 1021.2 in NNW 16.1 mph 16.1 mph 77 % 0.0 in 0.0 W/m2 CLR
19:43 5.6 °F 1.7 °F 1021.2 in NW 16.7 mph 16.7 mph 76 % 0.0 in 0.0 W/m2 CLR
19:49 6.1 °F 2.2 °F 1021.6 in NW 18.5 mph 18.5 mph 76 % 0.0 in 0.0 W/m2 CLR
19:54 6.1 °F 2.2 °F 1021.6 in NNW 20.4 mph 20.4 mph 76 % 0.0 in 0.0 W/m2 CLR
19:59 6.1 °F 2.4 °F 1021.6 in North 27.8 mph 27.8 mph 77 % 0.0 in 0.0 W/m2 CLR
20:04 6.1 °F 2.6 °F 1021.6 in NNW 29.6 mph 29.6 mph 78 % 0.0 in 0.0 W/m2 CLR
20:09 6.1 °F 2.7 °F 1021.6 in NNW 31.5 mph 31.5 mph 79 % 0.0 in 0.0 W/m2 CLR
20:14 6.1 °F 2.7 °F 1021.6 in NW 27.8 mph 27.8 mph 79 % 0.0 in 0.0 W/m2 CLR
20:19 6.1 °F 2.7 °F 1021.6 in NW 31.5 mph 31.5 mph 79 % 0.0 in 0.0 W/m2 CLR
20:24 6.7 °F 3.4 °F 1021.6 in NW 25.9 mph 25.9 mph 80 % 0.0 in 0.0 W/m2 CLR
20:29 6.7 °F 3.4 °F 1021.6 in NW 27.8 mph 27.8 mph 80 % 0.0 in 0.0 W/m2 CLR
20:34 6.7 °F 3.4 °F 1021.6 in North 24.1 mph 24.1 mph 80 % 0.0 in 0.0 W/m2 CLR
20:39 6.7 °F 3.4 °F 1021.9 in NNW 33.3 mph 33.3 mph 80 % 0.0 in 0.0 W/m2 CLR
20:44 6.7 °F 3.4 °F 1021.9 in NW 31.5 mph 31.5 mph 80 % 0.0 in 0.0 W/m2 CLR
20:49 6.7 °F 3.4 °F 1021.9 in North 32.2 mph 32.2 mph 80 % 0.0 in 0.0 W/m2 CLR
20:54 6.7 °F 3.6 °F 1021.9 in NW 32.2 mph 32.2 mph 81 % 0.0 in 0.0 W/m2 CLR
20:59 6.7 °F 3.6 °F 1021.9 in NNW 37.0 mph 37.0 mph 81 % 0.0 in 0.0 W/m2 CLR
21:04 6.7 °F 3.6 °F 1022.2 in NW 37.0 mph 37.0 mph 81 % 0.0 in 0.0 W/m2 CLR
21:09 6.7 °F 3.6 °F 1022.2 in North 33.8 mph 33.8 mph 81 % 0.0 in 0.0 W/m2 CLR
21:14 6.7 °F 3.8 °F 1022.2 in North 29.6 mph 29.6 mph 82 % 0.0 in 0.0 W/m2 CLR
21:19 6.7 °F 3.8 °F 1022.2 in NW 50.0 mph 50.0 mph 82 % 0.0 in 0.0 W/m2 CLR
21:24 6.7 °F 3.6 °F 1022.2 in North 33.3 mph 33.3 mph 81 % 0.0 in 0.0 W/m2 CLR
21:29 6.7 °F 3.6 °F 1022.2 in NNW 24.1 mph 24.1 mph 81 % 0.0 in 0.0 W/m2 CLR
21:34 6.7 °F 3.6 °F 1022.2 in NNW 40.7 mph 40.7 mph 81 % 0.0 in 0.0 W/m2 CLR
21:39 6.7 °F 3.6 °F 1022.6 in NNW 44.4 mph 44.4 mph 81 % 0.0 in 0.0 W/m2 CLR
21:44 6.1 °F 2.9 °F 1022.6 in North 48.1 mph 48.1 mph 80 % 0.0 in 0.0 W/m2 CLR
21:49 6.1 °F 2.9 °F 1022.2 in North 31.5 mph 31.5 mph 80 % 0.0 in 0.0 W/m2 CLR
21:54 6.1 °F 2.9 °F 1022.2 in NNW 31.5 mph 31.5 mph 80 % 0.0 in 0.0 W/m2 CLR
21:59 6.1 °F 2.9 °F 1022.2 in NW 35.2 mph 35.2 mph 80 % 0.0 in 0.0 W/m2 CLR
22:04 6.1 °F 2.7 °F 1022.2 in NW 37.0 mph 37.0 mph 79 % 0.0 in 0.0 W/m2 CLR
22:09 6.1 °F 2.6 °F 1022.2 in NW 31.5 mph 31.5 mph 78 % 0.0 in 0.0 W/m2 CLR
22:14 5.6 °F 2.0 °F 1022.2 in NNE 22.5 mph 22.5 mph 78 % 0.0 in 0.0 W/m2 CLR
22:19 6.1 °F 2.6 °F 1022.2 in NNW 31.5 mph 31.5 mph 78 % 0.0 in 0.0 W/m2 CLR
22:24 6.1 °F 2.4 °F 1022.2 in NW 38.9 mph 38.9 mph 77 % 0.0 in 0.0 W/m2 CLR
22:29 6.1 °F 2.2 °F 1022.2 in NW 33.8 mph 33.8 mph 76 % 0.0 in 0.0 W/m2 CLR
22:34 5.6 °F 1.7 °F 1022.2 in NNW 38.9 mph 38.9 mph 76 % 0.0 in 0.0 W/m2 CLR
22:39 5.6 °F 1.7 °F 1022.2 in NNW 40.7 mph 40.7 mph 76 % 0.0 in 0.0 W/m2 CLR
22:44 5.6 °F 1.7 °F 1022.2 in NW 40.7 mph 40.7 mph 76 % 0.0 in 0.0 W/m2 CLR
22:49 5.6 °F 1.8 °F 1022.2 in NNW 40.2 mph 40.2 mph 77 % 0.0 in 0.0 W/m2 CLR
22:54 5.6 °F 1.8 °F 1022.2 in NNW 29.6 mph 29.6 mph 77 % 0.0 in 0.0 W/m2 CLR
22:59 5.0 °F 1.3 °F 1022.2 in NNW 42.6 mph 42.6 mph 77 % 0.0 in 0.0 W/m2 CLR
23:04 5.6 °F 1.8 °F 1022.2 in NNW 46.3 mph 46.3 mph 77 % 0.0 in 0.0 W/m2 CLR
23:09 5.6 °F 1.7 °F 1022.2 in NW 53.7 mph 53.7 mph 76 % 0.0 in 0.0 W/m2 CLR
23:14 5.6 °F 1.7 °F 1021.9 in NNW 46.3 mph 46.3 mph 76 % 0.0 in 0.0 W/m2 CLR
23:19 5.6 °F 1.7 °F 1021.9 in NNW 40.7 mph 40.7 mph 76 % 0.0 in 0.0 W/m2 CLR
23:24 5.0 °F 1.3 °F 1022.2 in NNW 37.0 mph 37.0 mph 77 % 0.0 in 0.0 W/m2 CLR
23:29 5.0 °F 1.3 °F 1022.2 in NNW 42.6 mph 42.6 mph 77 % 0.0 in 0.0 W/m2 CLR
23:34 5.0 °F 1.5 °F 1022.6 in NW 42.6 mph 42.6 mph 78 % 0.0 in 0.0 W/m2 CLR
23:39 5.0 °F 1.5 °F 1022.6 in NNW 51.8 mph 51.8 mph 78 % 0.0 in 0.0 W/m2 CLR
23:44 5.0 °F 1.5 °F 1022.2 in NW 42.6 mph 42.6 mph 78 % 0.0 in 0.0 W/m2 CLR
23:49 5.0 °F 1.7 °F 1022.2 in NNW 42.6 mph 42.6 mph 79 % 0.0 in 0.0 W/m2 CLR
23:54 5.0 °F 1.7 °F 1021.9 in NNW 46.3 mph 46.3 mph 79 % 0.0 in 0.0 W/m2 CLR
23:59 5.0 °F 1.7 °F 1022.2 in NNW 35.2 mph 35.2 mph 79 % 0.0 in 0.0 W/m2 CLR
Lo Temps de Massalio
Compliments of Weather Underground - 1.25 mb